createdAt,value
2019-04-14T00:00:42.553Z,25.32
2019-04-14T00:03:15.787Z,25.77
2019-04-14T00:05:45.102Z,27.25
2019-04-14T00:08:13.698Z,26.80
2019-04-14T00:10:42.245Z,25.75
2019-04-14T00:13:11.001Z,26.82
2019-04-14T00:15:44.820Z,27.87
2019-04-14T00:18:09.732Z,29.48
2019-04-14T00:20:38.254Z,28.85
2019-04-14T00:23:26.238Z,27.60
2019-04-14T00:25:54.674Z,27.00
2019-04-14T00:28:33.598Z,32.38
2019-04-14T00:30:59.933Z,37.05
2019-04-14T00:33:30.172Z,35.33
2019-04-14T00:36:28.403Z,33.40
2019-04-14T00:38:56.850Z,25.52
2019-04-14T00:41:40.301Z,24.87
2019-04-14T00:44:13.252Z,25.30
2019-04-14T00:46:53.774Z,25.40
2019-04-14T00:49:22.328Z,24.50
2019-04-14T00:51:50.869Z,24.90
2019-04-14T00:54:19.628Z,24.55
2019-04-14T00:56:48.101Z,26.40
2019-04-14T00:59:16.531Z,26.17
2019-04-14T01:01:45.905Z,25.30
2019-04-14T01:04:14.434Z,25.35
2019-04-14T01:06:42.902Z,23.32
2019-04-14T01:09:13.164Z,23.47
2019-04-14T01:11:42.142Z,22.87
2019-04-14T01:14:10.669Z,24.20
2019-04-14T01:17:04.781Z,24.00
2019-04-14T01:19:33.285Z,24.20
2019-04-14T01:22:01.751Z,22.65
2019-04-14T01:24:35.968Z,23.38
2019-04-14T01:27:08.352Z,22.75
2019-04-14T01:29:36.784Z,23.35
2019-04-14T01:32:06.495Z,22.13
2019-04-14T01:34:35.059Z,24.00
2019-04-14T01:37:03.526Z,24.02
2019-04-14T01:39:32.869Z,21.90
2019-04-14T01:42:05.007Z,23.87
2019-04-14T01:44:33.421Z,22.80
2019-04-14T01:47:03.016Z,21.57
2019-04-14T01:49:41.879Z,21.45
2019-04-14T01:52:15.074Z,22.25
2019-04-14T03:46:36.447Z,17.27
2019-04-14T03:51:57.624Z,16.87
2019-04-14T03:54:11.030Z,17.32
2019-04-14T03:59:48.244Z,16.57
2019-04-14T04:02:24.942Z,17.55
2019-04-14T04:04:55.584Z,17.35
2019-04-14T04:07:24.020Z,18.37
2019-04-14T04:09:54.151Z,17.48
2019-04-14T04:12:22.625Z,20.77
2019-04-14T04:14:51.099Z,22.87
2019-04-14T04:17:30.210Z,22.55
2019-04-14T04:20:17.595Z,22.58
2019-04-14T04:26:17.163Z,17.98
2019-04-14T04:31:48.430Z,23.77
2019-04-14T04:34:31.621Z,20.68
2019-04-14T04:37:08.281Z,24.25
2019-04-14T04:39:43.612Z,18.87
2019-04-14T04:42:13.510Z,19.40
2019-04-14T04:44:44.418Z,19.27
2019-04-14T04:47:12.854Z,16.97
2019-04-14T04:49:42.509Z,17.27
2019-04-14T04:52:12.992Z,16.60
2019-04-14T04:54:41.262Z,16.32
2019-04-14T04:57:09.695Z,15.88
2019-04-14T05:00:09.241Z,15.60
2019-04-14T05:02:37.812Z,15.13
2019-04-14T05:08:37.007Z,28.35
2019-04-14T05:17:55.958Z,16.52
2019-04-14T05:20:53.206Z,16.73
2019-04-14T05:23:21.735Z,17.70
2019-04-14T05:25:50.202Z,16.87
2019-04-14T05:31:29.405Z,17.87
2019-04-14T05:33:55.634Z,19.95
2019-04-14T05:36:24.082Z,18.80
2019-04-14T05:38:53.961Z,19.85
2019-04-14T05:41:33.016Z,18.32
2019-04-14T05:44:03.111Z,23.57
2019-04-14T05:46:31.757Z,27.98
2019-04-14T05:49:00.207Z,21.52
2019-04-14T05:51:28.660Z,20.72
2019-04-14T05:53:57.087Z,20.82
2019-04-14T05:56:37.521Z,23.27
2019-04-14T05:59:06.638Z,21.93
2019-04-14T06:01:36.473Z,21.30
2019-04-14T06:04:05.556Z,21.55
2019-04-14T06:06:34.018Z,21.02
2019-04-14T06:09:02.446Z,20.72
2019-04-14T06:11:30.917Z,20.92
2019-04-14T06:13:59.108Z,20.50
2019-04-14T06:16:27.588Z,20.57
2019-04-14T06:18:55.775Z,21.20
2019-04-14T06:21:49.670Z,20.55
2019-04-14T06:24:18.198Z,20.02
2019-04-14T06:26:46.642Z,20.35
2019-04-14T06:29:15.400Z,20.12
2019-04-14T06:32:09.058Z,20.82
2019-04-14T06:34:55.451Z,21.42
2019-04-14T06:37:25.551Z,21.25
2019-04-14T06:39:55.625Z,22.35
2019-04-14T06:42:26.599Z,21.73
2019-04-14T06:45:03.594Z,22.55
2019-04-14T06:47:32.618Z,23.05
2019-04-14T06:50:01.074Z,23.15
2019-04-14T06:52:29.549Z,22.62
2019-04-14T06:54:57.980Z,25.02
2019-04-14T06:57:26.445Z,24.12
2019-04-14T06:59:54.869Z,23.55
2019-04-14T07:07:37.770Z,24.63
2019-04-14T07:10:06.569Z,25.65
2019-04-14T07:12:35.076Z,27.13
2019-04-14T07:15:03.571Z,26.65
2019-04-14T07:17:32.036Z,29.48
2019-04-14T07:22:56.630Z,29.48
2019-04-14T07:25:25.070Z,28.12
2019-04-14T07:27:53.538Z,28.25
2019-04-14T07:30:35.662Z,28.02
2019-04-14T07:33:08.606Z,26.50
2019-04-14T07:36:07.618Z,28.25
2019-04-14T07:38:51.623Z,29.35
2019-04-14T07:44:20.642Z,27.37
2019-04-14T07:46:53.831Z,30.70
2019-04-14T07:49:40.109Z,29.70
2019-04-14T07:52:17.255Z,29.63
2019-04-14T07:58:27.891Z,28.55
2019-04-14T08:00:58.031Z,27.95
2019-04-14T08:03:55.577Z,26.60
2019-04-14T08:06:24.042Z,25.35
2019-04-14T08:08:52.547Z,25.57
2019-04-14T08:11:21.010Z,25.40
2019-04-14T08:13:55.252Z,24.57
2019-04-14T08:16:26.920Z,26.40
2019-04-14T08:18:55.358Z,25.40
2019-04-14T08:21:23.866Z,24.15
2019-04-14T08:23:52.311Z,25.60
2019-04-14T08:26:20.757Z,37.93
2019-04-14T08:28:49.266Z,25.52
2019-04-14T08:34:15.357Z,26.00
2019-04-14T08:36:43.855Z,22.82
2019-04-14T08:39:12.307Z,19.75
2019-04-14T08:41:42.415Z,80.77
2019-04-14T08:44:56.516Z,74.95
2019-04-14T08:47:42.817Z,82.75
2019-04-14T08:50:12.899Z,86.97
2019-04-14T08:52:58.480Z,24.35
2019-04-14T08:55:31.298Z,34.43
2019-04-14T08:58:17.432Z,21.27
2019-04-14T09:00:53.604Z,22.87
2019-04-14T09:03:41.973Z,19.55
2019-04-14T09:06:12.053Z,19.62
2019-04-14T09:14:57.363Z,19.32
2019-04-14T09:17:21.651Z,18.48
2019-04-14T09:19:50.092Z,18.75
2019-04-14T09:22:18.544Z,21.52
2019-04-14T09:24:50.029Z,18.80
2019-04-14T09:27:19.154Z,19.73
2019-04-14T09:29:52.098Z,20.15
2019-04-14T09:32:18.684Z,19.85
2019-04-14T09:34:47.136Z,20.23
2019-04-14T09:37:16.158Z,20.20
2019-04-14T09:39:46.528Z,18.65
2019-04-14T09:42:15.463Z,19.73
2019-04-14T09:44:44.366Z,21.45
2019-04-14T09:47:13.346Z,21.55
2019-04-14T09:49:46.356Z,19.45
2019-04-14T09:52:15.702Z,19.73
2019-04-14T09:54:44.806Z,19.55
2019-04-14T09:57:13.754Z,19.67
2019-04-14T09:59:42.750Z,21.85
2019-04-14T10:02:11.202Z,21.33
2019-04-14T10:04:39.678Z,18.95
2019-04-14T10:07:08.107Z,19.48
2019-04-14T10:09:36.586Z,20.95
2019-04-14T10:15:44.374Z,19.50
2019-04-14T10:18:12.658Z,17.82
2019-04-14T10:24:52.021Z,16.32
2019-04-14T10:27:20.467Z,16.82
2019-04-14T10:29:48.927Z,17.87
2019-04-14T10:32:17.386Z,17.12
2019-04-14T10:34:45.846Z,15.80
2019-04-14T10:37:14.355Z,15.15
2019-04-14T10:39:45.660Z,14.13
2019-04-14T10:42:14.073Z,15.15
2019-04-14T10:44:42.522Z,13.28
2019-04-14T10:47:10.946Z,12.25
2019-04-14T10:49:39.399Z,12.47
2019-04-14T10:52:07.840Z,11.68
2019-04-14T10:54:36.284Z,11.33
2019-04-14T10:57:04.719Z,10.58
2019-04-14T10:59:33.180Z,10.40
2019-04-14T11:02:01.609Z,9.93
2019-04-14T11:04:30.055Z,10.05
2019-04-14T11:07:00.118Z,9.88
2019-04-14T11:09:28.565Z,9.28
2019-04-14T11:11:57.167Z,10.00
2019-04-14T11:14:25.577Z,10.10
2019-04-14T11:16:54.026Z,9.80
2019-04-14T11:19:22.473Z,10.43
2019-04-14T11:21:50.894Z,13.72
2019-04-14T11:24:19.334Z,15.50
2019-04-14T11:26:47.779Z,8.15
2019-04-14T11:29:16.253Z,8.43
2019-04-14T11:31:46.331Z,7.30
2019-04-14T11:34:16.431Z,8.58
2019-04-14T11:36:46.481Z,7.25
2019-04-14T11:39:16.569Z,7.78
2019-04-14T11:41:45.008Z,7.42
2019-04-14T11:44:13.471Z,7.05
2019-04-14T11:46:41.865Z,6.17
2019-04-14T11:49:10.378Z,6.03
2019-04-14T11:51:40.846Z,5.60
2019-04-14T11:54:09.227Z,6.05
2019-04-14T11:56:37.689Z,5.87
2019-04-14T11:59:06.106Z,5.85
2019-04-14T12:01:45.100Z,5.83
2019-04-14T12:04:15.145Z,5.80
2019-04-14T12:06:45.256Z,5.72
2019-04-14T12:09:18.302Z,6.05
2019-04-14T12:11:47.409Z,6.50
2019-04-14T12:14:16.039Z,11.33
2019-04-14T12:16:44.513Z,13.62
2019-04-14T12:19:12.971Z,6.92
2019-04-14T12:21:41.415Z,6.75
2019-04-14T12:24:09.958Z,8.18
2019-04-14T12:26:38.373Z,9.05
2019-04-14T12:29:06.878Z,7.97
2019-04-14T12:31:35.382Z,7.20
2019-04-14T12:34:03.824Z,8.28
2019-04-14T12:36:32.282Z,7.25
2019-04-14T12:39:00.723Z,7.83
2019-04-14T12:41:39.973Z,7.33
2019-04-14T12:44:28.402Z,8.68
2019-04-14T12:46:58.508Z,8.05
2019-04-14T12:49:34.713Z,8.58
2019-04-14T12:52:21.555Z,8.33
2019-04-14T12:54:46.166Z,8.28
2019-04-14T12:57:16.328Z,21.77
2019-04-14T12:59:44.774Z,14.55
2019-04-14T13:02:17.590Z,11.90
2019-04-14T13:04:46.029Z,8.60
2019-04-14T13:07:14.486Z,10.80
2019-04-14T13:09:42.927Z,21.15
2019-04-14T13:12:11.396Z,10.78
2019-04-14T13:14:39.854Z,8.70
2019-04-14T13:17:08.298Z,8.75
2019-04-14T13:19:36.717Z,8.35
2019-04-14T13:22:05.165Z,8.00
2019-04-14T13:24:33.585Z,7.10
2019-04-14T13:27:02.025Z,7.12
2019-04-14T13:29:30.462Z,6.60
2019-04-14T13:31:58.929Z,7.33
2019-04-14T13:34:27.382Z,8.73
2019-04-14T13:36:55.831Z,7.10
2019-04-14T13:39:24.269Z,8.53
2019-04-14T13:41:52.713Z,6.70
2019-04-14T13:44:21.133Z,6.62
2019-04-14T13:46:56.671Z,6.22
2019-04-14T13:49:25.093Z,6.60
2019-04-14T13:51:53.538Z,6.67
2019-04-14T13:54:21.994Z,6.87
2019-04-14T13:56:53.839Z,6.17
2019-04-14T13:59:22.279Z,6.22
2019-04-14T14:01:50.738Z,7.50
2019-04-14T14:04:19.179Z,7.33
2019-04-14T14:06:47.638Z,8.13
2019-04-14T14:09:16.067Z,9.50
2019-04-14T14:11:46.173Z,8.60
2019-04-14T14:14:25.244Z,10.72
2019-04-14T14:16:55.783Z,9.90
2019-04-14T14:19:26.262Z,9.95
2019-04-14T14:21:56.551Z,10.40
2019-04-14T14:24:26.618Z,10.53
2019-04-14T14:26:57.106Z,11.00
2019-04-14T14:29:25.549Z,11.00
2019-04-14T14:31:54.670Z,11.43
2019-04-14T14:34:23.113Z,11.73
2019-04-14T14:36:51.931Z,11.05
2019-04-14T14:39:21.690Z,11.73
2019-04-14T14:41:52.201Z,12.33
2019-04-14T14:44:22.854Z,12.53
2019-04-14T14:46:52.973Z,14.30
2019-04-14T14:49:23.602Z,11.90
2019-04-14T14:51:54.630Z,12.90
2019-04-14T14:54:24.375Z,13.28
2019-04-14T14:56:52.858Z,12.23
2019-04-14T14:59:21.866Z,30.00
2019-04-14T15:01:50.805Z,15.10
2019-04-14T15:04:21.204Z,20.17
2019-04-14T15:06:49.976Z,23.50
2019-04-14T15:09:18.866Z,14.23
2019-04-14T15:11:47.346Z,14.30
2019-04-14T15:14:16.244Z,13.48
2019-04-14T15:16:45.349Z,12.78
2019-04-14T15:19:25.855Z,16.62
2019-04-14T15:21:54.337Z,14.13
2019-04-14T15:24:22.802Z,13.53
2019-04-14T15:26:51.238Z,13.40
2019-04-14T15:29:19.699Z,12.95
2019-04-14T15:31:48.128Z,12.20
2019-04-14T15:34:16.578Z,12.82
2019-04-14T15:36:45.011Z,13.05
2019-04-14T15:39:13.454Z,12.35
2019-04-14T15:41:41.885Z,11.75
2019-04-14T15:44:10.357Z,10.72
2019-04-14T15:46:38.793Z,11.22
2019-04-14T15:49:07.263Z,10.65
2019-04-14T15:51:35.683Z,10.30
2019-04-14T15:54:04.153Z,11.80
2019-04-14T15:56:50.727Z,11.15
2019-04-14T15:59:20.818Z,12.90
2019-04-14T16:01:50.896Z,13.20
2019-04-14T16:04:21.011Z,11.93
2019-04-14T16:06:51.061Z,9.88
2019-04-14T16:09:27.225Z,12.33
2019-04-14T16:12:06.484Z,9.93
2019-04-14T16:14:42.544Z,12.10
2019-04-14T16:17:28.915Z,11.18
2019-04-14T16:19:59.032Z,10.60
2019-04-14T16:22:27.481Z,10.60
2019-04-14T16:24:55.938Z,8.53
2019-04-14T16:27:35.113Z,13.15
2019-04-14T16:30:14.101Z,8.63
2019-04-14T16:32:44.175Z,8.50
2019-04-14T16:35:14.265Z,8.28
2019-04-14T16:37:42.695Z,9.28
2019-04-14T16:40:11.160Z,8.78
2019-04-14T16:42:39.598Z,9.28
2019-04-14T16:45:08.121Z,9.28
2019-04-14T16:47:37.504Z,8.08
2019-04-14T16:50:06.729Z,11.15
2019-04-14T16:52:37.270Z,10.53
2019-04-14T16:55:20.094Z,9.95
2019-04-14T16:57:50.633Z,14.45
2019-04-14T17:00:21.751Z,11.55
2019-04-14T17:02:50.393Z,15.65
2019-04-14T17:05:18.858Z,13.40
2019-04-14T17:07:47.282Z,14.05
2019-04-14T17:10:15.757Z,14.70
2019-04-14T17:12:44.200Z,13.85
2019-04-14T17:15:32.462Z,13.68
2019-04-14T17:18:11.313Z,12.73
2019-04-14T17:20:50.379Z,15.28
2019-04-14T17:23:20.461Z,15.00
2019-04-14T17:25:53.493Z,13.85
2019-04-14T17:28:24.342Z,12.43
2019-04-14T17:30:54.675Z,14.65
2019-04-14T17:33:24.751Z,13.85
2019-04-14T17:36:00.987Z,17.27
2019-04-14T17:38:37.142Z,15.23
2019-04-14T17:41:19.412Z,17.23
2019-04-14T17:43:49.431Z,13.83
2019-04-14T17:46:19.533Z,16.12
2019-04-14T17:48:49.615Z,14.60
2019-04-14T17:51:37.837Z,14.50
2019-04-14T17:54:07.928Z,14.55
2019-04-14T17:56:52.023Z,16.95
2019-04-14T17:59:38.414Z,15.32
2019-04-14T18:02:08.533Z,43.87
2019-04-14T18:04:47.623Z,20.57
2019-04-14T18:07:23.480Z,14.80
2019-04-14T18:10:02.714Z,15.40
2019-04-14T18:12:32.803Z,15.03
2019-04-14T18:15:02.924Z,15.78
2019-04-14T18:17:33.045Z,13.60
2019-04-14T18:20:03.116Z,14.95
2019-04-14T18:22:31.593Z,13.78
2019-04-14T18:25:00.048Z,14.40
2019-04-14T18:27:29.275Z,14.28
2019-04-14T18:30:02.270Z,25.50
2019-04-14T18:32:36.389Z,15.45
2019-04-14T18:35:12.878Z,15.10
2019-04-14T18:37:45.754Z,14.58
2019-04-14T18:40:20.586Z,14.85
2019-04-14T18:42:50.666Z,14.58
2019-04-14T18:45:31.635Z,15.75
2019-04-14T18:48:18.743Z,16.95
2019-04-14T18:51:05.637Z,22.90
2019-04-14T18:53:44.847Z,17.67
2019-04-14T18:56:33.656Z,15.85
2019-04-14T18:59:13.381Z,37.98
2019-04-14T19:01:43.955Z,25.23
2019-04-14T19:04:14.676Z,25.85
2019-04-14T19:06:44.638Z,17.30
2019-04-14T19:09:14.380Z,17.00
2019-04-14T19:11:47.578Z,16.05
2019-04-14T19:14:18.205Z,19.07
2019-04-14T19:17:06.475Z,18.48
2019-04-14T19:19:37.148Z,19.30
2019-04-14T19:22:09.041Z,20.17
2019-04-14T19:24:39.587Z,19.82
2019-04-14T19:27:08.655Z,19.10
2019-04-14T19:29:37.697Z,19.32
2019-04-14T19:32:07.752Z,19.00
2019-04-14T19:34:36.777Z,18.80
2019-04-14T19:37:05.783Z,20.65
2019-04-14T19:39:34.897Z,20.97
2019-04-14T19:42:04.597Z,21.00
2019-04-14T19:44:33.551Z,21.02
2019-04-14T19:47:02.472Z,21.35
2019-04-14T19:49:31.622Z,19.98
2019-04-14T19:52:00.676Z,20.48
2019-04-14T19:54:29.600Z,21.73
2019-04-14T19:57:00.016Z,21.73
2019-04-14T19:59:29.195Z,21.87
2019-04-14T20:01:58.171Z,22.45
2019-04-14T20:04:27.342Z,27.93
2019-04-14T20:06:56.311Z,54.48
2019-04-14T20:09:25.249Z,28.65
2019-04-14T20:11:54.896Z,22.30
2019-04-14T20:14:23.887Z,22.27
2019-04-14T20:16:55.727Z,19.80
2019-04-14T20:19:35.976Z,20.48
2019-04-14T20:22:06.426Z,21.20
2019-04-14T20:24:44.706Z,20.65
2019-04-14T20:27:19.916Z,21.65
2019-04-14T20:29:59.630Z,20.25
2019-04-14T20:32:32.622Z,20.52
2019-04-14T20:35:01.523Z,22.52
2019-04-14T20:37:33.366Z,22.50
2019-04-14T20:40:02.222Z,22.32
2019-04-14T20:42:31.087Z,20.90
2019-04-14T20:45:00.155Z,22.95
2019-04-14T20:47:30.370Z,21.25
2019-04-14T20:49:59.470Z,20.65
2019-04-14T20:52:30.023Z,24.70
2019-04-14T20:54:58.926Z,22.40
2019-04-14T20:57:27.906Z,22.42
2019-04-14T20:59:56.975Z,20.37
2019-04-14T21:02:30.468Z,22.27
2019-04-14T21:05:02.714Z,22.90
2019-04-14T21:07:51.420Z,22.37
2019-04-14T21:10:27.837Z,21.65
2019-04-14T21:13:04.355Z,20.88
2019-04-14T21:15:44.163Z,20.60
2019-04-14T21:18:14.708Z,19.77
2019-04-14T21:20:57.763Z,21.65
2019-04-14T21:23:28.385Z,21.05
2019-04-14T21:26:13.116Z,19.00
2019-04-14T21:28:55.649Z,21.17
2019-04-14T21:31:26.025Z,21.42
2019-04-14T21:34:05.983Z,20.00
2019-04-14T21:36:40.745Z,21.20
2019-04-14T21:39:16.878Z,22.62
2019-04-14T21:41:47.618Z,21.87
2019-04-14T21:44:18.930Z,20.48
2019-04-14T21:46:49.361Z,19.05
2019-04-14T21:49:18.159Z,20.97
2019-04-14T21:51:54.535Z,19.90
2019-04-14T21:54:24.121Z,21.52
2019-04-14T21:57:15.571Z,21.00
2019-04-14T22:00:04.242Z,21.70
2019-04-14T22:02:50.780Z,22.30
2019-04-14T22:05:37.537Z,22.65
2019-04-14T22:08:13.813Z,23.92
2019-04-14T22:10:47.311Z,23.50
2019-04-14T22:13:16.447Z,22.82
2019-04-14T22:15:46.641Z,22.40
2019-04-14T22:18:15.827Z,22.95
2019-04-14T22:20:44.774Z,22.65
2019-04-14T22:23:13.531Z,22.80
2019-04-14T22:25:42.358Z,21.23
2019-04-14T22:28:11.085Z,24.55
2019-04-14T22:30:39.978Z,20.75
2019-04-14T22:33:09.769Z,24.95
2019-04-14T22:35:39.096Z,22.67
2019-04-14T22:38:08.090Z,23.10
2019-04-14T22:40:36.696Z,25.72
2019-04-14T22:43:05.568Z,22.07
2019-04-14T22:45:34.346Z,23.20
2019-04-14T22:48:03.048Z,20.17
2019-04-14T22:50:32.099Z,24.23
2019-04-14T22:53:01.070Z,22.95
2019-04-14T22:55:29.866Z,19.52
2019-04-14T22:57:58.773Z,19.98
2019-04-14T23:00:41.912Z,21.10
2019-04-14T23:03:21.326Z,18.90
2019-04-14T23:06:00.770Z,24.23
2019-04-14T23:08:33.822Z,20.37
2019-04-14T23:11:06.698Z,21.75
2019-04-14T23:13:36.767Z,20.05
2019-04-14T23:16:15.773Z,16.93
2019-04-14T23:18:48.847Z,19.17
2019-04-14T23:21:34.199Z,20.25
2019-04-14T23:24:06.949Z,18.92
2019-04-14T23:26:35.391Z,21.52
2019-04-14T23:29:03.828Z,18.92
2019-04-14T23:31:32.287Z,19.92
2019-04-14T23:34:00.729Z,18.62
2019-04-14T23:36:29.181Z,19.48
2019-04-14T23:38:57.611Z,19.77
2019-04-14T23:41:26.033Z,20.40
2019-04-14T23:43:54.573Z,20.80
2019-04-14T23:46:23.105Z,18.70
2019-04-14T23:48:51.560Z,18.15
2019-04-14T23:51:20.018Z,19.50
2019-04-14T23:53:48.482Z,20.88
2019-04-14T23:56:16.905Z,20.40
2019-04-14T23:58:45.381Z,19.35
